sensor_id;sensor_type;location;lat;lon;timestamp;temperature;humidity
22781;DHT22;11557;50.884;4.322;2023-04-25T00:01:13;11.00;99.90
22781;DHT22;11557;50.884;4.322;2023-04-25T00:03:39;11.10;99.90
22781;DHT22;11557;50.884;4.322;2023-04-25T00:06:05;11.20;99.90
22781;DHT22;11557;50.884;4.322;2023-04-25T00:08:32;11.20;99.90
22781;DHT22;11557;50.884;4.322;2023-04-25T00:10:58;11.20;99.90
22781;DHT22;11557;50.884;4.322;2023-04-25T00:13:24;11.10;99.90
22781;DHT22;11557;50.884;4.322;2023-04-25T00:15:51;11.10;99.90
22781;DHT22;11557;50.884;4.322;2023-04-25T00:18:21;10.90;99.90
22781;DHT22;11557;50.884;4.322;2023-04-25T00:20:48;10.90;99.90
22781;DHT22;11557;50.884;4.322;2023-04-25T00:23:14;10.90;99.90
22781;DHT22;11557;50.884;4.322;2023-04-25T00:25:48;10.90;99.90
22781;DHT22;11557;50.884;4.322;2023-04-25T00:28:14;10.70;99.90
22781;DHT22;11557;50.884;4.322;2023-04-25T00:30:41;10.80;99.90
22781;DHT22;11557;50.884;4.322;2023-04-25T00:33:07;10.70;99.90
22781;DHT22;11557;50.884;4.322;2023-04-25T00:35:33;10.60;99.90
22781;DHT22;11557;50.884;4.322;2023-04-25T00:37:59;10.80;99.90
22781;DHT22;11557;50.884;4.322;2023-04-25T00:40:25;10.90;99.90
22781;DHT22;11557;50.884;4.322;2023-04-25T00:42:52;11.10;99.90
22781;DHT22;11557;50.884;4.322;2023-04-25T00:45:18;11.00;99.90
22781;DHT22;11557;50.884;4.322;2023-04-25T00:47:45;11.00;99.90
22781;DHT22;11557;50.884;4.322;2023-04-25T00:50:12;10.70;99.90
22781;DHT22;11557;50.884;4.322;2023-04-25T00:52:43;10.70;99.90
22781;DHT22;11557;50.884;4.322;2023-04-25T00:55:11;10.80;99.90
22781;DHT22;11557;50.884;4.322;2023-04-25T00:57:38;10.90;99.90
22781;DHT22;11557;50.884;4.322;2023-04-25T01:00:07;11.10;99.90
22781;DHT22;11557;50.884;4.322;2023-04-25T01:02:35;11.00;99.90
22781;DHT22;11557;50.884;4.322;2023-04-25T01:05:02;11.00;99.90
22781;DHT22;11557;50.884;4.322;2023-04-25T01:07:28;10.90;99.90
22781;DHT22;11557;50.884;4.322;2023-04-25T01:09:54;10.90;99.90
22781;DHT22;11557;50.884;4.322;2023-04-25T01:12:20;10.70;99.90
22781;DHT22;11557;50.884;4.322;2023-04-25T01:14:46;11.00;99.90
22781;DHT22;11557;50.884;4.322;2023-04-25T01:17:12;11.10;99.90
22781;DHT22;11557;50.884;4.322;2023-04-25T01:19:38;11.20;99.90
22781;DHT22;11557;50.884;4.322;2023-04-25T01:22:04;11.30;99.90
22781;DHT22;11557;50.884;4.322;2023-04-25T01:24:33;11.00;99.90
22781;DHT22;11557;50.884;4.322;2023-04-25T01:27:00;10.90;99.90
22781;DHT22;11557;50.884;4.322;2023-04-25T01:29:27;11.00;99.90
22781;DHT22;11557;50.884;4.322;2023-04-25T01:31:53;10.90;99.90
22781;DHT22;11557;50.884;4.322;2023-04-25T01:34:20;10.90;99.90
22781;DHT22;11557;50.884;4.322;2023-04-25T01:36:48;10.80;99.90
22781;DHT22;11557;50.884;4.322;2023-04-25T01:39:15;10.80;99.90
22781;DHT22;11557;50.884;4.322;2023-04-25T01:41:41;10.60;99.90
22781;DHT22;11557;50.884;4.322;2023-04-25T01:44:06;10.70;99.90
22781;DHT22;11557;50.884;4.322;2023-04-25T01:46:33;10.60;99.90
22781;DHT22;11557;50.884;4.322;2023-04-25T01:48:58;10.60;99.90
22781;DHT22;11557;50.884;4.322;2023-04-25T01:51:24;10.50;99.90
22781;DHT22;11557;50.884;4.322;2023-04-25T01:53:50;10.30;99.90
22781;DHT22;11557;50.884;4.322;2023-04-25T01:56:18;10.30;99.90
22781;DHT22;11557;50.884;4.322;2023-04-25T01:58:43;10.20;99.90
22781;DHT22;11557;50.884;4.322;2023-04-25T02:01:10;10.30;99.90
22781;DHT22;11557;50.884;4.322;2023-04-25T02:03:36;10.20;99.90
22781;DHT22;11557;50.884;4.322;2023-04-25T02:06:01;10.20;99.90
22781;DHT22;11557;50.884;4.322;2023-04-25T02:08:27;10.40;99.90
22781;DHT22;11557;50.884;4.322;2023-04-25T02:10:53;10.30;99.90
22781;DHT22;11557;50.884;4.322;2023-04-25T02:13:18;10.30;99.90
22781;DHT22;11557;50.884;4.322;2023-04-25T02:15:44;10.20;99.90
22781;DHT22;11557;50.884;4.322;2023-04-25T02:18:10;10.10;99.90
22781;DHT22;11557;50.884;4.322;2023-04-25T02:20:36;10.00;99.90
22781;DHT22;11557;50.884;4.322;2023-04-25T02:23:03;9.90;99.90
22781;DHT22;11557;50.884;4.322;2023-04-25T02:25:29;9.80;99.90
22781;DHT22;11557;50.884;4.322;2023-04-25T02:27:54;9.90;99.90
22781;DHT22;11557;50.884;4.322;2023-04-25T02:30:20;9.90;99.90
22781;DHT22;11557;50.884;4.322;2023-04-25T02:32:46;9.90;99.90
22781;DHT22;11557;50.884;4.322;2023-04-25T02:35:12;9.90;99.90
22781;DHT22;11557;50.884;4.322;2023-04-25T02:37:39;9.90;99.90
22781;DHT22;11557;50.884;4.322;2023-04-25T02:40:05;10.00;99.90
22781;DHT22;11557;50.884;4.322;2023-04-25T02:42:31;10.20;99.90
22781;DHT22;11557;50.884;4.322;2023-04-25T02:44:57;10.00;99.90
22781;DHT22;11557;50.884;4.322;2023-04-25T02:47:23;10.10;99.90
22781;DHT22;11557;50.884;4.322;2023-04-25T02:49:49;10.00;99.90
22781;DHT22;11557;50.884;4.322;2023-04-25T02:52:15;9.90;99.90
22781;DHT22;11557;50.884;4.322;2023-04-25T02:54:41;10.00;99.90
22781;DHT22;11557;50.884;4.322;2023-04-25T02:57:07;10.20;99.90
22781;DHT22;11557;50.884;4.322;2023-04-25T02:59:33;10.00;99.90
22781;DHT22;11557;50.884;4.322;2023-04-25T03:01:59;10.00;99.90
22781;DHT22;11557;50.884;4.322;2023-04-25T03:04:24;10.10;99.90
22781;DHT22;11557;50.884;4.322;2023-04-25T03:06:51;10.20;99.90
22781;DHT22;11557;50.884;4.322;2023-04-25T03:09:17;10.20;99.90
22781;DHT22;11557;50.884;4.322;2023-04-25T03:11:44;10.20;99.90
22781;DHT22;11557;50.884;4.322;2023-04-25T03:14:10;10.00;99.90
22781;DHT22;11557;50.884;4.322;2023-04-25T03:16:35;9.80;99.90
22781;DHT22;11557;50.884;4.322;2023-04-25T03:19:02;9.90;99.90
22781;DHT22;11557;50.884;4.322;2023-04-25T03:21:30;10.00;99.90
22781;DHT22;11557;50.884;4.322;2023-04-25T03:23:57;9.80;99.90
22781;DHT22;11557;50.884;4.322;2023-04-25T03:26:23;9.90;99.90
22781;DHT22;11557;50.884;4.322;2023-04-25T03:28:48;9.80;99.90
22781;DHT22;11557;50.884;4.322;2023-04-25T03:31:14;9.80;99.90
22781;DHT22;11557;50.884;4.322;2023-04-25T03:33:40;9.70;99.90
22781;DHT22;11557;50.884;4.322;2023-04-25T03:36:06;9.90;99.90
22781;DHT22;11557;50.884;4.322;2023-04-25T03:38:32;9.80;99.90
22781;DHT22;11557;50.884;4.322;2023-04-25T03:40:57;9.80;99.90
22781;DHT22;11557;50.884;4.322;2023-04-25T03:43:23;9.80;99.90
22781;DHT22;11557;50.884;4.322;2023-04-25T03:45:48;10.00;99.90
22781;DHT22;11557;50.884;4.322;2023-04-25T03:48:15;9.90;99.90
22781;DHT22;11557;50.884;4.322;2023-04-25T03:50:40;9.80;99.90
22781;DHT22;11557;50.884;4.322;2023-04-25T03:53:06;9.80;99.90
22781;DHT22;11557;50.884;4.322;2023-04-25T03:55:31;9.80;99.90
22781;DHT22;11557;50.884;4.322;2023-04-25T03:57:58;9.70;99.90
22781;DHT22;11557;50.884;4.322;2023-04-25T04:00:24;9.60;99.90
22781;DHT22;11557;50.884;4.322;2023-04-25T04:02:50;9.70;99.90
22781;DHT22;11557;50.884;4.322;2023-04-25T04:05:16;9.90;99.90
22781;DHT22;11557;50.884;4.322;2023-04-25T04:07:42;9.90;99.90
22781;DHT22;11557;50.884;4.322;2023-04-25T04:10:11;9.90;99.90
22781;DHT22;11557;50.884;4.322;2023-04-25T04:12:37;9.80;99.90
22781;DHT22;11557;50.884;4.322;2023-04-25T04:15:06;9.80;99.90
22781;DHT22;11557;50.884;4.322;2023-04-25T04:17:33;10.00;99.90
22781;DHT22;11557;50.884;4.322;2023-04-25T04:19:59;10.00;99.90
22781;DHT22;11557;50.884;4.322;2023-04-25T04:22:25;9.90;99.90
22781;DHT22;11557;50.884;4.322;2023-04-25T04:24:51;9.60;99.90
22781;DHT22;11557;50.884;4.322;2023-04-25T04:27:18;9.60;99.90
22781;DHT22;11557;50.884;4.322;2023-04-25T04:29:45;9.70;99.90
22781;DHT22;11557;50.884;4.322;2023-04-25T04:32:12;9.60;99.90
22781;DHT22;11557;50.884;4.322;2023-04-25T04:34:37;9.50;99.90
22781;DHT22;11557;50.884;4.322;2023-04-25T04:37:05;9.30;99.90
22781;DHT22;11557;50.884;4.322;2023-04-25T04:39:33;9.30;99.90
22781;DHT22;11557;50.884;4.322;2023-04-25T04:41:58;9.20;99.90
22781;DHT22;11557;50.884;4.322;2023-04-25T04:44:25;9.20;99.90
22781;DHT22;11557;50.884;4.322;2023-04-25T04:46:50;9.10;99.90
22781;DHT22;11557;50.884;4.322;2023-04-25T04:49:16;9.40;99.90
22781;DHT22;11557;50.884;4.322;2023-04-25T04:51:43;9.40;99.90
22781;DHT22;11557;50.884;4.322;2023-04-25T04:54:12;9.20;99.90
22781;DHT22;11557;50.884;4.322;2023-04-25T04:56:39;9.20;99.90
22781;DHT22;11557;50.884;4.322;2023-04-25T04:59:05;9.20;99.90
22781;DHT22;11557;50.884;4.322;2023-04-25T05:01:31;9.20;99.90
22781;DHT22;11557;50.884;4.322;2023-04-25T05:03:57;9.40;99.90
22781;DHT22;11557;50.884;4.322;2023-04-25T05:06:26;9.20;99.90
22781;DHT22;11557;50.884;4.322;2023-04-25T05:08:52;9.20;99.90
22781;DHT22;11557;50.884;4.322;2023-04-25T05:11:19;9.30;99.90
22781;DHT22;11557;50.884;4.322;2023-04-25T05:13:44;9.40;99.90
22781;DHT22;11557;50.884;4.322;2023-04-25T05:16:11;9.50;99.90
22781;DHT22;11557;50.884;4.322;2023-04-25T05:18:38;9.60;99.90
22781;DHT22;11557;50.884;4.322;2023-04-25T05:21:04;9.70;99.90
22781;DHT22;11557;50.884;4.322;2023-04-25T05:23:31;9.80;99.90
22781;DHT22;11557;50.884;4.322;2023-04-25T05:25:57;9.80;99.90
22781;DHT22;11557;50.884;4.322;2023-04-25T05:28:23;9.80;99.90
22781;DHT22;11557;50.884;4.322;2023-04-25T05:30:49;9.60;99.90
22781;DHT22;11557;50.884;4.322;2023-04-25T05:33:15;9.60;99.90
22781;DHT22;11557;50.884;4.322;2023-04-25T05:35:41;9.50;99.90
22781;DHT22;11557;50.884;4.322;2023-04-25T05:38:07;9.40;99.90
22781;DHT22;11557;50.884;4.322;2023-04-25T05:40:33;9.30;99.90
22781;DHT22;11557;50.884;4.322;2023-04-25T05:42:59;9.30;99.90
22781;DHT22;11557;50.884;4.322;2023-04-25T05:45:25;9.30;99.90
22781;DHT22;11557;50.884;4.322;2023-04-25T05:47:50;9.50;99.90
22781;DHT22;11557;50.884;4.322;2023-04-25T05:50:16;9.80;99.90
22781;DHT22;11557;50.884;4.322;2023-04-25T05:52:42;9.60;99.90
22781;DHT22;11557;50.884;4.322;2023-04-25T05:55:08;9.50;99.90
22781;DHT22;11557;50.884;4.322;2023-04-25T05:57:34;9.40;99.90
22781;DHT22;11557;50.884;4.322;2023-04-25T06:00:00;9.40;99.90
22781;DHT22;11557;50.884;4.322;2023-04-25T06:02:26;9.50;99.90
22781;DHT22;11557;50.884;4.322;2023-04-25T06:04:52;9.60;99.90
22781;DHT22;11557;50.884;4.322;2023-04-25T06:07:21;9.80;99.90
22781;DHT22;11557;50.884;4.322;2023-04-25T06:09:47;9.50;99.90
22781;DHT22;11557;50.884;4.322;2023-04-25T06:12:12;9.40;99.90
22781;DHT22;11557;50.884;4.322;2023-04-25T06:14:38;9.50;99.90
22781;DHT22;11557;50.884;4.322;2023-04-25T06:17:04;9.50;99.90
22781;DHT22;11557;50.884;4.322;2023-04-25T06:19:35;9.70;99.90
22781;DHT22;11557;50.884;4.322;2023-04-25T06:22:01;9.90;99.90
22781;DHT22;11557;50.884;4.322;2023-04-25T06:24:27;10.00;99.90
22781;DHT22;11557;50.884;4.322;2023-04-25T06:26:53;10.00;99.90
22781;DHT22;11557;50.884;4.322;2023-04-25T06:29:19;10.30;99.90
22781;DHT22;11557;50.884;4.322;2023-04-25T06:31:45;10.40;99.90
22781;DHT22;11557;50.884;4.322;2023-04-25T06:34:10;10.20;99.90
22781;DHT22;11557;50.884;4.322;2023-04-25T06:36:36;10.10;99.90
22781;DHT22;11557;50.884;4.322;2023-04-25T06:39:02;10.00;99.90
22781;DHT22;11557;50.884;4.322;2023-04-25T06:41:28;9.80;99.90
22781;DHT22;11557;50.884;4.322;2023-04-25T06:43:53;9.70;99.90
22781;DHT22;11557;50.884;4.322;2023-04-25T06:46:19;9.90;99.90
22781;DHT22;11557;50.884;4.322;2023-04-25T06:48:45;10.00;99.90
22781;DHT22;11557;50.884;4.322;2023-04-25T06:51:10;9.90;99.90
22781;DHT22;11557;50.884;4.322;2023-04-25T06:53:36;10.00;99.90
22781;DHT22;11557;50.884;4.322;2023-04-25T06:56:02;10.00;99.90
22781;DHT22;11557;50.884;4.322;2023-04-25T06:58:28;10.10;99.90
22781;DHT22;11557;50.884;4.322;2023-04-25T07:00:54;10.10;99.90
22781;DHT22;11557;50.884;4.322;2023-04-25T07:03:20;10.40;99.90
22781;DHT22;11557;50.884;4.322;2023-04-25T07:05:46;10.60;99.90
22781;DHT22;11557;50.884;4.322;2023-04-25T07:08:11;10.40;99.90
22781;DHT22;11557;50.884;4.322;2023-04-25T07:10:37;10.20;99.90
22781;DHT22;11557;50.884;4.322;2023-04-25T07:13:03;10.20;99.90
22781;DHT22;11557;50.884;4.322;2023-04-25T07:15:29;10.10;99.90
22781;DHT22;11557;50.884;4.322;2023-04-25T07:17:54;9.80;99.90
22781;DHT22;11557;50.884;4.322;2023-04-25T07:20:20;9.80;99.90
22781;DHT22;11557;50.884;4.322;2023-04-25T07:22:46;9.90;99.90
22781;DHT22;11557;50.884;4.322;2023-04-25T07:25:11;10.10;99.90
22781;DHT22;11557;50.884;4.322;2023-04-25T07:27:37;10.10;99.90
22781;DHT22;11557;50.884;4.322;2023-04-25T07:30:03;10.20;99.90
22781;DHT22;11557;50.884;4.322;2023-04-25T07:32:29;10.40;99.90
22781;DHT22;11557;50.884;4.322;2023-04-25T07:34:55;10.50;99.90
22781;DHT22;11557;50.884;4.322;2023-04-25T07:37:20;10.70;99.90
22781;DHT22;11557;50.884;4.322;2023-04-25T07:39:46;10.50;99.90
22781;DHT22;11557;50.884;4.322;2023-04-25T07:42:12;10.50;99.90
22781;DHT22;11557;50.884;4.322;2023-04-25T07:44:38;10.50;99.90
22781;DHT22;11557;50.884;4.322;2023-04-25T07:47:06;10.80;99.90
22781;DHT22;11557;50.884;4.322;2023-04-25T07:49:35;10.80;99.90
22781;DHT22;11557;50.884;4.322;2023-04-25T07:52:01;10.70;99.90
22781;DHT22;11557;50.884;4.322;2023-04-25T07:54:27;11.00;99.90
22781;DHT22;11557;50.884;4.322;2023-04-25T07:56:52;11.20;99.90
22781;DHT22;11557;50.884;4.322;2023-04-25T07:59:18;11.20;99.90
22781;DHT22;11557;50.884;4.322;2023-04-25T08:01:44;11.30;99.90
22781;DHT22;11557;50.884;4.322;2023-04-25T08:04:09;11.20;99.90
22781;DHT22;11557;50.884;4.322;2023-04-25T08:06:35;11.60;99.90
22781;DHT22;11557;50.884;4.322;2023-04-25T08:09:01;11.90;99.90
22781;DHT22;11557;50.884;4.322;2023-04-25T08:11:27;11.70;99.90
22781;DHT22;11557;50.884;4.322;2023-04-25T08:13:53;11.90;99.90
22781;DHT22;11557;50.884;4.322;2023-04-25T08:16:19;12.20;99.90
22781;DHT22;11557;50.884;4.322;2023-04-25T08:18:44;12.20;99.90
22781;DHT22;11557;50.884;4.322;2023-04-25T08:21:10;12.10;99.90
22781;DHT22;11557;50.884;4.322;2023-04-25T08:23:38;12.20;99.90
22781;DHT22;11557;50.884;4.322;2023-04-25T08:26:03;12.50;99.90
22781;DHT22;11557;50.884;4.322;2023-04-25T08:28:30;11.90;99.90
22781;DHT22;11557;50.884;4.322;2023-04-25T08:30:56;11.40;99.90
22781;DHT22;11557;50.884;4.322;2023-04-25T08:33:22;12.20;99.90
22781;DHT22;11557;50.884;4.322;2023-04-25T08:35:48;13.80;99.90
22781;DHT22;11557;50.884;4.322;2023-04-25T08:38:13;14.80;99.90
22781;DHT22;11557;50.884;4.322;2023-04-25T08:40:40;15.50;99.90
22781;DHT22;11557;50.884;4.322;2023-04-25T08:43:06;15.00;99.90
22781;DHT22;11557;50.884;4.322;2023-04-25T08:45:39;14.60;99.90
22781;DHT22;11557;50.884;4.322;2023-04-25T08:48:11;15.90;99.90
22781;DHT22;11557;50.884;4.322;2023-04-25T08:50:40;17.10;99.90
22781;DHT22;11557;50.884;4.322;2023-04-25T08:53:12;17.60;99.90
22781;DHT22;11557;50.884;4.322;2023-04-25T08:55:42;16.80;99.90
22781;DHT22;11557;50.884;4.322;2023-04-25T08:58:09;15.40;99.90
22781;DHT22;11557;50.884;4.322;2023-04-25T09:00:36;15.30;99.90
22781;DHT22;11557;50.884;4.322;2023-04-25T09:03:01;14.40;99.90
22781;DHT22;11557;50.884;4.322;2023-04-25T09:05:28;13.80;99.90
22781;DHT22;11557;50.884;4.322;2023-04-25T09:07:55;13.10;99.90
22781;DHT22;11557;50.884;4.322;2023-04-25T09:10:22;12.60;99.90
22781;DHT22;11557;50.884;4.322;2023-04-25T09:13:08;12.50;99.90
22781;DHT22;11557;50.884;4.322;2023-04-25T09:15:56;12.00;99.90
22781;DHT22;11557;50.884;4.322;2023-04-25T09:18:29;11.60;99.90
22781;DHT22;11557;50.884;4.322;2023-04-25T09:21:06;11.40;99.90
22781;DHT22;11557;50.884;4.322;2023-04-25T09:23:40;11.20;99.90
22781;DHT22;11557;50.884;4.322;2023-04-25T09:26:07;11.40;99.90
22781;DHT22;11557;50.884;4.322;2023-04-25T09:28:32;11.60;99.90
22781;DHT22;11557;50.884;4.322;2023-04-25T09:31:00;11.70;99.90
22781;DHT22;11557;50.884;4.322;2023-04-25T09:33:30;11.80;99.90
22781;DHT22;11557;50.884;4.322;2023-04-25T09:36:02;12.20;99.90
22781;DHT22;11557;50.884;4.322;2023-04-25T09:38:39;13.10;99.90
22781;DHT22;11557;50.884;4.322;2023-04-25T09:41:06;14.10;99.90
22781;DHT22;11557;50.884;4.322;2023-04-25T09:43:32;14.80;99.90
22781;DHT22;11557;50.884;4.322;2023-04-25T09:45:58;15.90;99.90
22781;DHT22;11557;50.884;4.322;2023-04-25T09:48:27;16.70;99.90
22781;DHT22;11557;50.884;4.322;2023-04-25T09:51:13;17.20;99.90
22781;DHT22;11557;50.884;4.322;2023-04-25T09:53:41;17.50;99.90
22781;DHT22;11557;50.884;4.322;2023-04-25T09:56:09;17.00;99.90
22781;DHT22;11557;50.884;4.322;2023-04-25T09:58:37;16.40;99.90
22781;DHT22;11557;50.884;4.322;2023-04-25T10:01:05;15.20;99.90
22781;DHT22;11557;50.884;4.322;2023-04-25T10:03:33;14.50;99.90
22781;DHT22;11557;50.884;4.322;2023-04-25T10:06:04;13.90;99.90
22781;DHT22;11557;50.884;4.322;2023-04-25T10:08:36;14.30;99.90
22781;DHT22;11557;50.884;4.322;2023-04-25T10:11:04;15.00;99.90
22781;DHT22;11557;50.884;4.322;2023-04-25T10:13:31;15.80;99.90
22781;DHT22;11557;50.884;4.322;2023-04-25T10:15:58;15.60;99.90
22781;DHT22;11557;50.884;4.322;2023-04-25T10:18:25;16.50;99.90
22781;DHT22;11557;50.884;4.322;2023-04-25T10:20:59;17.00;99.90
22781;DHT22;11557;50.884;4.322;2023-04-25T10:23:26;17.30;99.90
22781;DHT22;11557;50.884;4.322;2023-04-25T10:25:53;18.00;99.90
22781;DHT22;11557;50.884;4.322;2023-04-25T10:28:21;17.60;99.90
22781;DHT22;11557;50.884;4.322;2023-04-25T10:31:03;16.60;99.90
22781;DHT22;11557;50.884;4.322;2023-04-25T10:33:40;16.60;99.90
22781;DHT22;11557;50.884;4.322;2023-04-25T10:36:12;15.90;99.90
22781;DHT22;11557;50.884;4.322;2023-04-25T10:38:39;15.40;99.90
22781;DHT22;11557;50.884;4.322;2023-04-25T10:41:09;14.90;99.90
22781;DHT22;11557;50.884;4.322;2023-04-25T10:43:42;14.20;99.90
22781;DHT22;11557;50.884;4.322;2023-04-25T10:46:18;14.00;99.90
22781;DHT22;11557;50.884;4.322;2023-04-25T10:48:56;14.00;99.90
22781;DHT22;11557;50.884;4.322;2023-04-25T10:51:46;13.90;99.90
22781;DHT22;11557;50.884;4.322;2023-04-25T10:54:12;13.30;99.90
22781;DHT22;11557;50.884;4.322;2023-04-25T10:56:41;13.10;99.90
22781;DHT22;11557;50.884;4.322;2023-04-25T10:59:13;12.80;99.90
22781;DHT22;11557;50.884;4.322;2023-04-25T11:01:51;12.50;99.90
22781;DHT22;11557;50.884;4.322;2023-04-25T11:04:32;12.30;99.90
22781;DHT22;11557;50.884;4.322;2023-04-25T11:07:17;12.20;99.90
22781;DHT22;11557;50.884;4.322;2023-04-25T11:09:48;12.50;99.90
22781;DHT22;11557;50.884;4.322;2023-04-25T11:12:14;13.00;99.90
22781;DHT22;11557;50.884;4.322;2023-04-25T11:14:40;13.00;99.90
22781;DHT22;11557;50.884;4.322;2023-04-25T11:17:06;12.60;99.90
22781;DHT22;11557;50.884;4.322;2023-04-25T11:19:33;13.10;99.90
22781;DHT22;11557;50.884;4.322;2023-04-25T11:22:00;13.40;99.90
22781;DHT22;11557;50.884;4.322;2023-04-25T11:24:30;13.30;99.90
22781;DHT22;11557;50.884;4.322;2023-04-25T11:26:58;13.30;99.90
22781;DHT22;11557;50.884;4.322;2023-04-25T11:29:26;13.30;99.90
22781;DHT22;11557;50.884;4.322;2023-04-25T11:31:53;13.10;99.90
22781;DHT22;11557;50.884;4.322;2023-04-25T11:34:21;13.30;99.90
22781;DHT22;11557;50.884;4.322;2023-04-25T11:36:47;13.30;99.90
22781;DHT22;11557;50.884;4.322;2023-04-25T11:39:13;13.40;99.90
22781;DHT22;11557;50.884;4.322;2023-04-25T11:41:41;13.20;99.90
22781;DHT22;11557;50.884;4.322;2023-04-25T11:44:07;13.00;99.90
22781;DHT22;11557;50.884;4.322;2023-04-25T11:46:36;13.20;99.90
22781;DHT22;11557;50.884;4.322;2023-04-25T11:49:02;13.00;99.90
22781;DHT22;11557;50.884;4.322;2023-04-25T11:51:29;13.10;99.90
22781;DHT22;11557;50.884;4.322;2023-04-25T11:53:56;13.30;99.90
22781;DHT22;11557;50.884;4.322;2023-04-25T11:56:22;13.80;99.90
22781;DHT22;11557;50.884;4.322;2023-04-25T11:58:58;13.80;99.90
22781;DHT22;11557;50.884;4.322;2023-04-25T12:01:48;13.70;99.90
22781;DHT22;11557;50.884;4.322;2023-04-25T12:04:15;13.90;99.90
22781;DHT22;11557;50.884;4.322;2023-04-25T12:06:43;13.90;99.90
22781;DHT22;11557;50.884;4.322;2023-04-25T12:09:11;14.30;99.90
22781;DHT22;11557;50.884;4.322;2023-04-25T12:11:45;14.50;99.90
22781;DHT22;11557;50.884;4.322;2023-04-25T12:14:12;14.30;99.90
22781;DHT22;11557;50.884;4.322;2023-04-25T12:16:45;13.70;99.90
22781;DHT22;11557;50.884;4.322;2023-04-25T12:19:15;13.30;99.90
22781;DHT22;11557;50.884;4.322;2023-04-25T12:21:41;13.10;99.90
22781;DHT22;11557;50.884;4.322;2023-04-25T12:26:53;12.70;99.90
22781;DHT22;11557;50.884;4.322;2023-04-25T12:29:25;12.70;99.90
22781;DHT22;11557;50.884;4.322;2023-04-25T12:31:52;12.50;99.90
22781;DHT22;11557;50.884;4.322;2023-04-25T12:34:22;12.50;99.90
22781;DHT22;11557;50.884;4.322;2023-04-25T12:36:48;12.70;99.90
22781;DHT22;11557;50.884;4.322;2023-04-25T12:39:15;13.10;99.90
22781;DHT22;11557;50.884;4.322;2023-04-25T12:41:41;13.50;99.90
22781;DHT22;11557;50.884;4.322;2023-04-25T12:44:06;13.70;99.90
22781;DHT22;11557;50.884;4.322;2023-04-25T12:46:32;13.70;99.90
22781;DHT22;11557;50.884;4.322;2023-04-25T12:48:58;13.60;99.90
22781;DHT22;11557;50.884;4.322;2023-04-25T12:51:23;13.60;99.90
22781;DHT22;11557;50.884;4.322;2023-04-25T12:53:53;13.50;99.90
22781;DHT22;11557;50.884;4.322;2023-04-25T12:56:19;13.50;99.90
22781;DHT22;11557;50.884;4.322;2023-04-25T12:58:45;13.50;99.90
22781;DHT22;11557;50.884;4.322;2023-04-25T13:01:10;13.30;99.90
22781;DHT22;11557;50.884;4.322;2023-04-25T13:03:37;13.50;99.90
22781;DHT22;11557;50.884;4.322;2023-04-25T13:06:03;13.60;99.90
22781;DHT22;11557;50.884;4.322;2023-04-25T13:08:30;13.60;99.90
22781;DHT22;11557;50.884;4.322;2023-04-25T13:10:55;13.60;99.90
22781;DHT22;11557;50.884;4.322;2023-04-25T13:13:21;13.60;99.90
22781;DHT22;11557;50.884;4.322;2023-04-25T13:15:47;13.50;99.90
22781;DHT22;11557;50.884;4.322;2023-04-25T13:18:13;13.40;99.90
22781;DHT22;11557;50.884;4.322;2023-04-25T13:20:38;13.40;99.90
22781;DHT22;11557;50.884;4.322;2023-04-25T13:23:04;13.70;99.90
22781;DHT22;11557;50.884;4.322;2023-04-25T13:25:30;13.90;99.90
22781;DHT22;11557;50.884;4.322;2023-04-25T13:27:55;14.20;99.90
22781;DHT22;11557;50.884;4.322;2023-04-25T13:30:21;14.50;99.90
22781;DHT22;11557;50.884;4.322;2023-04-25T13:32:46;14.50;99.90
22781;DHT22;11557;50.884;4.322;2023-04-25T13:35:13;14.60;99.90
22781;DHT22;11557;50.884;4.322;2023-04-25T13:37:41;15.00;99.90
22781;DHT22;11557;50.884;4.322;2023-04-25T13:40:09;14.90;99.90
22781;DHT22;11557;50.884;4.322;2023-04-25T13:42:36;14.40;99.90
22781;DHT22;11557;50.884;4.322;2023-04-25T13:45:03;13.80;99.90
22781;DHT22;11557;50.884;4.322;2023-04-25T13:47:30;13.80;99.90
22781;DHT22;11557;50.884;4.322;2023-04-25T13:49:58;13.60;99.90
22781;DHT22;11557;50.884;4.322;2023-04-25T13:52:24;13.50;99.90
22781;DHT22;11557;50.884;4.322;2023-04-25T13:54:51;13.50;99.90
22781;DHT22;11557;50.884;4.322;2023-04-25T13:57:17;13.10;99.90
22781;DHT22;11557;50.884;4.322;2023-04-25T13:59:43;13.20;99.90
22781;DHT22;11557;50.884;4.322;2023-04-25T14:02:08;13.30;99.90
22781;DHT22;11557;50.884;4.322;2023-04-25T14:04:35;13.40;99.90
22781;DHT22;11557;50.884;4.322;2023-04-25T14:07:01;13.40;99.90
22781;DHT22;11557;50.884;4.322;2023-04-25T14:09:27;13.20;99.90
22781;DHT22;11557;50.884;4.322;2023-04-25T14:11:53;13.20;99.90
22781;DHT22;11557;50.884;4.322;2023-04-25T14:14:19;13.50;99.90
22781;DHT22;11557;50.884;4.322;2023-04-25T14:16:47;14.00;99.90
22781;DHT22;11557;50.884;4.322;2023-04-25T14:19:17;14.00;99.90
22781;DHT22;11557;50.884;4.322;2023-04-25T14:21:43;14.10;99.90
22781;DHT22;11557;50.884;4.322;2023-04-25T14:24:09;13.90;99.90
22781;DHT22;11557;50.884;4.322;2023-04-25T14:26:36;13.90;99.90
22781;DHT22;11557;50.884;4.322;2023-04-25T14:29:06;14.10;99.90
22781;DHT22;11557;50.884;4.322;2023-04-25T14:31:32;14.40;99.90
22781;DHT22;11557;50.884;4.322;2023-04-25T14:33:58;14.10;99.90
22781;DHT22;11557;50.884;4.322;2023-04-25T14:36:24;14.10;99.90
22781;DHT22;11557;50.884;4.322;2023-04-25T14:38:51;14.00;99.90
22781;DHT22;11557;50.884;4.322;2023-04-25T14:41:17;13.60;99.90
22781;DHT22;11557;50.884;4.322;2023-04-25T14:43:43;13.60;99.90
22781;DHT22;11557;50.884;4.322;2023-04-25T14:46:10;13.60;99.90
22781;DHT22;11557;50.884;4.322;2023-04-25T14:48:36;13.40;99.90
22781;DHT22;11557;50.884;4.322;2023-04-25T14:51:02;13.40;99.90
22781;DHT22;11557;50.884;4.322;2023-04-25T14:53:28;13.50;99.90
22781;DHT22;11557;50.884;4.322;2023-04-25T14:55:54;13.20;99.90
22781;DHT22;11557;50.884;4.322;2023-04-25T14:58:19;13.20;99.90
22781;DHT22;11557;50.884;4.322;2023-04-25T15:00:46;13.00;99.90
22781;DHT22;11557;50.884;4.322;2023-04-25T15:03:12;13.20;99.90
22781;DHT22;11557;50.884;4.322;2023-04-25T15:05:42;13.30;99.90
22781;DHT22;11557;50.884;4.322;2023-04-25T15:08:08;13.10;99.90
22781;DHT22;11557;50.884;4.322;2023-04-25T15:10:34;13.00;99.90
22781;DHT22;11557;50.884;4.322;2023-04-25T15:13:00;12.90;99.90
22781;DHT22;11557;50.884;4.322;2023-04-25T15:15:26;12.50;99.90
22781;DHT22;11557;50.884;4.322;2023-04-25T15:17:52;12.40;99.90
22781;DHT22;11557;50.884;4.322;2023-04-25T15:20:19;12.30;99.90
22781;DHT22;11557;50.884;4.322;2023-04-25T15:22:45;12.20;99.90
22781;DHT22;11557;50.884;4.322;2023-04-25T15:25:12;12.30;99.90
22781;DHT22;11557;50.884;4.322;2023-04-25T15:27:39;12.40;99.90
22781;DHT22;11557;50.884;4.322;2023-04-25T15:30:10;12.60;99.90
22781;DHT22;11557;50.884;4.322;2023-04-25T15:32:37;13.00;99.90
22781;DHT22;11557;50.884;4.322;2023-04-25T15:35:04;13.00;99.90
22781;DHT22;11557;50.884;4.322;2023-04-25T15:37:31;12.80;99.90